• Join FlightAware (Why Join?)
  • Login
  • US Flag 
04:12PM EST


 

Airport Tracker/Info


-or-


 

Live Flight TrackerFlight Track Log ✈ FEX300 ✈ 11-Oct-2013 ✈ CYXU - CYKZ

Flight Track Log - Related Links

Times and Time Zones

All times are in EDT time to prevent confusion due to time zone crossing. See the FEX300 flight status page for this flight to view local times or setup timezone preferences in your user account.

Time Position Orientation Groundspeed Altitude Reporting Facility
EDT Latitude Longitude Course Direction KTS MPH feet Rate Location/Type
07:13PM 43.0333 -81.1167 90° East 110 127 2,000  Level Toronto Center
07:14PM 43.0333 -81.0667 90° East 130 150 3,200 1,320 Climbing Toronto Center
07:15PM 43.0667 -81.0333 36° Northeast 140 161 4,700 1,500 Climbing Toronto Center
07:16PM 43.0833 -80.9833 65° Northeast 150 173 6,200 1,140 Climbing Toronto Center
07:17PM 43.1167 -80.9333 48° Northeast 150 173 7,000 420 Climbing Toronto Center
07:18PM 43.1667 -80.8833 36° Northeast 200 230 7,100  Climbing Toronto Center
07:19PM 43.2000 -80.8167 56° Northeast 220 253 7,000 -60 Descending Toronto Center
07:20PM 43.2667 -80.7500 36° Northeast 240 276 7,000  Level Toronto Center
07:21PM 43.3167 -80.6833 44° Northeast 240 276 7,000  Level Toronto Center
07:22PM 43.3667 -80.6500 26° Northeast 240 276 7,000  Level Toronto Center
07:23PM 43.4000 -80.5667 61° Northeast 240 276 7,000  Level Toronto Center
07:24PM 43.4500 -80.5000 44° Northeast 240 276 7,000  Level Toronto Center
07:25PM 43.5000 -80.4667 26° Northeast 240 276 7,000  Level Toronto Center
07:26PM 43.5500 -80.4000 44° Northeast 240 276 7,000  Level Toronto Center
07:27PM 43.6000 -80.3167 50° Northeast 240 276 7,000  Level Toronto Center
07:28PM 43.6500 -80.2500 44° Northeast 240 276 7,000 -420 Level Toronto Center
07:29PM 43.6833 -80.1833 55° Northeast 240 276 6,200 -840 Descending Toronto Center
07:30PM 43.7333 -80.1000 50° Northeast 250 288 5,400 -600 Descending Toronto Center
07:31PM 43.7500 -80.0333 71° East 260 299 5,000 -300 Descending Toronto Center
07:32PM 43.7667 -79.9333 77° East 240 276 4,800 -660 Descending Toronto Center
07:33PM 43.8000 -79.8333 65° Northeast 250 288 3,700 -900 Descending Toronto Center
07:34PM 43.8500 -79.7667 44° Northeast 240 276 3,100 -420 Descending Toronto Center
07:35PM 43.8833 -79.7000 55° Northeast 220 253 2,900 -480 Descending Toronto Center
07:36PM 43.8833 -79.6333 90° East 220 253 2,200 -540 Descending Toronto Center
07:37PM 43.8667 -79.5333 103° East 220 253 1,900 -300 Descending Toronto Center
07:38PM 43.8667 -79.4667 90° East 210 242 1,700 -300 Descending Toronto Center
07:39PM 43.8667 -79.4000 90° East 160 184 1,400 -420 Descending Toronto Center
07:40PM 43.8667 -79.3500 90° East 130 150 900 -540 Descending Toronto Center